Bahama Mama — 9HA2263 — position and weather

sailwx.info

Track history (hours):
 
Tides and Currents Weather Stations Pressure Air Temp Water Temp Dewpoint Dewpoint Depression Visibility Wind Speed Wind Dir Waves Ship Positions

Bahama Mama

Last reported at 2018-Feb-25 01:00 UTC. Time now 2018-Feb-25 01:30 UTC.
Position N 39°33' E 002°38'.

Length 155 m; draft 5.5 m.

Type: Ship. MMSI: 248218000.

Date/timePositionNaut miles runAvg speedWind from/ knotsBaromVisibWave heightAir tempDewpointWater temp
2018-Feb-25 01:00N 39°33' E 002°38'0 0.0
2018-Feb-25 00:30N 39°33' E 002°38'0 0.6
2018-Feb-25 00:00N 39°33' E 002°38'815.3
2018-Feb-24 23:31N 39°27' E 002°34'1121.5
2018-Feb-24 23:00N 39°20' E 002°23'4121.7
2018-Feb-24 21:08N 38°58' E 001°38'421.6
2018-Feb-24 20:58N 38°56' E 001°34'611.9
2018-Feb-24 20:27N 38°54' E 001°27'0 0.3
2018-Feb-24 19:51N 38°54' E 001°27'10 1.3
2018-Feb-24 12:10N 38°48' E 001°17'521.8
2018-Feb-24 11:57N 38°48' E 001°23'716.1
2018-Feb-24 11:30N 38°54' E 001°27'0 0.3
2018-Feb-24 10:58N 38°54' E 001°27'2 2.1
2018-Feb-24 10:13N 38°54' E 001°29'521.9
2018-Feb-24 10:00N 38°56' E 001°34'4222.1
2018-Feb-24 08:07N 39°19' E 002°19'221.9
2018-Feb-24 08:00N 39°21' E 002°22'1121.9
2018-Feb-24 07:30N 39°27' E 002°33'714.3
2018-Feb-24 07:00N 39°33' E 002°38'0 0.3
2018-Feb-24 06:30N 39°33' E 002°38'0 0.0
2018-Feb-24 06:00N 39°33' E 002°38'0 0.0
2018-Feb-24 05:30N 39°33' E 002°38'0 0.0
2018-Feb-24 05:00N 39°33' E 002°38'0 0.0
2018-Feb-24 04:30N 39°33' E 002°38'0 0.0
2018-Feb-24 04:00N 39°33' E 002°38'0 0.0
2018-Feb-24 03:30N 39°33' E 002°38'0 0.0
2018-Feb-24 03:00N 39°33' E 002°38'0 0.0
2018-Feb-24 02:30N 39°33' E 002°38'0 0.0
2018-Feb-24 02:00N 39°33' E 002°38'0 0.0
2018-Feb-24 01:30N 39°33' E 002°38'0 0.0
2018-Feb-24 01:00N 39°33' E 002°38'0 0.0
2018-Feb-24 00:29N 39°33' E 002°38'1 1.1
2018-Feb-24 00:00N 39°33' E 002°38'917.5
2018-Feb-23 23:30N 39°26' E 002°33'1121.5
2018-Feb-23 23:00N 39°19' E 002°22'3721.8
2018-Feb-23 21:19N 39°00' E 001°41'721.9
2018-Feb-23 21:00N 38°56' E 001°34'610.9
2018-Feb-23 20:29N 38°54' E 001°27'0 0.0
2018-Feb-23 20:00N 38°54' E 001°27'611.6
2018-Feb-23 19:28N 38°48' E 001°25'14 2.0
2018-Feb-23 12:32N 38°49' E 001°08'721.9
2018-Feb-23 12:14N 38°48' E 001°16'521.3
2018-Feb-23 12:00N 38°48' E 001°22'714.2
2018-Feb-23 11:30N 38°54' E 001°27'0 0.0
2018-Feb-23 11:01N 38°54' E 001°27'1 1.2
2018-Feb-23 10:18N 38°54' E 001°28'722.0
2018-Feb-23 10:00N 38°57' E 001°35'4021.9
2018-Feb-23 08:10N 39°19' E 002°19'322.0
2018-Feb-23 08:00N 39°21' E 002°22'1121.9
2018-Feb-23 07:30N 39°28' E 002°34'612.2
2018-Feb-23 07:00N 39°33' E 002°38'0 0.0
2018-Feb-23 06:31N 39°33' E 002°38'0 0.0
2018-Feb-23 06:00N 39°33' E 002°38'0 0.0
2018-Feb-23 05:30N 39°33' E 002°38'0 0.0
2018-Feb-23 05:00N 39°33' E 002°38'0 0.0
2018-Feb-23 04:30N 39°33' E 002°38'0 0.0
2018-Feb-23 03:58N 39°33' E 002°38'0 0.0
2018-Feb-23 03:30N 39°33' E 002°38'0 0.0
2018-Feb-23 03:00N 39°33' E 002°38'0 0.0
2018-Feb-23 02:30N 39°33' E 002°38'0 0.0
2018-Feb-23 02:00N 39°33' E 002°38'0 0.0
2018-Feb-23 01:30N 39°33' E 002°38'0 0.0
2018-Feb-23 01:00N 39°33' E 002°38'0 0.0
2018-Feb-23 00:29N 39°33' E 002°38'1 1.8
2018-Feb-23 00:01N 39°33' E 002°38'1019.9
2018-Feb-22 23:30N 39°24' E 002°32'1121.3
2018-Feb-22 22:59N 39°18' E 002°19'3721.2
2018-Feb-22 21:15N 38°59' E 001°39'521.2
2018-Feb-22 21:00N 38°56' E 001°33'5 9.2
2018-Feb-22 20:26N 38°54' E 001°27'0 0.6
2018-Feb-22 20:00N 38°54' E 001°27'814.5
2018-Feb-22 19:29N 38°48' E 001°22'11 1.7
2018-Feb-22 12:45N 38°49' E 001°08'622.2
2018-Feb-22 12:30N 38°49' E 001°15'918.7
2018-Feb-22 12:00N 38°50' E 001°27'5 8.7
2018-Feb-22 11:27N 38°54' E 001°27'0 0.0
2018-Feb-22 10:57N 38°54' E 001°27'1 1.4
2018-Feb-22 10:30N 38°54' E 001°28'918.9
2018-Feb-22 10:00N 38°58' E 001°38'3921.1
2018-Feb-22 08:08N 39°20' E 002°21'321.9
2018-Feb-22 08:00N 39°22' E 002°24'1121.2
2018-Feb-22 07:30N 39°28' E 002°34'611.5
2018-Feb-22 07:00N 39°33' E 002°38'0 0.0
2018-Feb-22 06:30N 39°33' E 002°38'611.2
2018-Feb-22 06:00N 39°28' E 002°35'1221.2
2018-Feb-22 05:27N 39°20' E 002°23'4321.1
2018-Feb-22 03:24N 38°57' E 001°36'820.2
2018-Feb-22 03:00N 38°54' E 001°27'0 0.8
2018-Feb-22 02:25N 38°54' E 001°27'5 7.0
2018-Feb-22 01:38N 38°49' E 001°26'215.4
2018-Feb-22 01:29N 38°48' E 001°23'8820.2
2018-Feb-21 21:07N 39°26' W 000°19'1 5.5
2018-Feb-21 21:00N 39°27' W 000°19'0 0.0
2018-Feb-21 20:30N 39°27' W 000°19'0 0.0
2018-Feb-21 19:58N 39°27' W 000°19'0 0.0
2018-Feb-21 18:52N 39°27' W 000°19'0 1.2
2018-Feb-21 18:30N 39°27' W 000°19'4 7.7
2018-Feb-21 17:59N 39°25' W 000°14'7621.1
2018-Feb-21 14:22N 38°50' E 001°13'922.0
2018-Feb-21 13:58N 38°48' E 001°24'612.3
2018-Feb-21 13:26N 38°54' E 001°27'0 0.0
2018-Feb-21 12:52N 38°54' E 001°27'0 0.7
2018-Feb-21 12:29N 38°54' E 001°27'815.4
2018-Feb-21 12:00N 38°58' E 001°36'4021.5
2018-Feb-21 10:07N 39°19' E 002°19'221.4
2018-Feb-21 10:00N 39°21' E 002°22'1121.8
2018-Feb-21 09:30N 39°27' E 002°33'713.8
2018-Feb-21 09:00N 39°33' E 002°38'0 0.0
2018-Feb-21 08:30N 39°33' E 002°38'0 0.0
2018-Feb-21 08:00N 39°33' E 002°38'0 0.0
2018-Feb-21 07:30N 39°33' E 002°38'0 0.0
2018-Feb-21 07:00N 39°33' E 002°38'0 0.0
2018-Feb-21 06:30N 39°33' E 002°38'0 0.5
2018-Feb-21 06:00N 39°33' E 002°38'3 6.3
2018-Feb-21 05:30N 39°30' E 002°37'1121.2
2018-Feb-21 04:59N 39°22' E 002°27'1021.2
2018-Feb-21 04:30N 39°16' E 002°16'3420.7
2018-Feb-21 02:52N 38°59' E 001°39'921.5
2018-Feb-21 02:26N 38°54' E 001°29'1 2.8
2018-Feb-21 02:00N 38°54' E 001°27'2 2.8
2018-Feb-21 01:25N 38°53' E 001°27'8819.7
2018-Feb-20 20:57N 39°26' W 000°19'1 1.9
2018-Feb-20 20:30N 39°27' W 000°19'0 0.0
2018-Feb-20 20:00N 39°27' W 000°19'0 0.0
2018-Feb-20 19:30N 39°27' W 000°19'0 0.0
2018-Feb-20 18:52N 39°27' W 000°19'0 0.1
2018-Feb-20 18:31N 39°27' W 000°19'8020.3
2018-Feb-20 14:33N 38°50' E 001°12'521.4
2018-Feb-20 14:21N 38°49' E 001°18'618.9
2018-Feb-20 14:01N 38°49' E 001°26'610.5
2018-Feb-20 13:28N 38°54' E 001°27'0 0.0
2018-Feb-20 12:58N 38°54' E 001°27'1 1.1
2018-Feb-20 12:23N 38°54' E 001°28'820.3
2018-Feb-20 12:00N 38°57' E 001°36'3921.9
2018-Feb-20 10:13N 39°19' E 002°18'521.9
2018-Feb-20 10:01N 39°21' E 002°23'1121.6
2018-Feb-20 09:30N 39°28' E 002°34'611.3
2018-Feb-20 09:01N 39°33' E 002°38'0 0.0
2018-Feb-20 08:30N 39°33' E 002°38'0 0.0
2018-Feb-20 08:00N 39°33' E 002°38'0 0.0
2018-Feb-20 07:30N 39°33' E 002°38'0 0.0
2018-Feb-20 07:01N 39°33' E 002°38'0 0.0
2018-Feb-20 06:30N 39°33' E 002°38'2 4.6
2018-Feb-20 06:00N 39°31' E 002°37'1121.8
2018-Feb-20 05:30N 39°23' E 002°28'4222.3
2018-Feb-20 03:38N 39°00' E 001°42'322.3
2018-Feb-20 03:30N 38°59' E 001°39'1121.1
2018-Feb-20 03:00N 38°54' E 001°27'0 0.7
2018-Feb-20 02:26N 38°54' E 001°27'0 0.0
2018-Feb-20 02:00N 38°54' E 001°27'611.1
2018-Feb-20 01:30N 38°49' E 001°26'9020.9
2018-Feb-19 21:13N 39°26' W 000°19'1 3.7
2018-Feb-19 21:00N 39°27' W 000°20'0 0.0
2018-Feb-19 20:30N 39°27' W 000°20'0 0.0
2018-Feb-19 20:00N 39°27' W 000°20'0 0.0
2018-Feb-19 19:30N 39°27' W 000°20'0 0.0
2018-Feb-19 19:00N 39°27' W 000°20'0 0.0
2018-Feb-19 18:30N 39°27' W 000°20'0 0.0
2018-Feb-19 18:00N 39°27' W 000°20'0 0.0
2018-Feb-19 17:30N 39°27' W 000°20'0 0.0
2018-Feb-19 17:00N 39°27' W 000°20'0 0.0
2018-Feb-19 16:30N 39°27' W 000°19'8320.9
2018-Feb-19 12:34N 38°49' E 001°15'521.6
2018-Feb-19 12:20N 38°48' E 001°21'515.0
2018-Feb-19 11:59N 38°52' E 001°27'3 5.0
2018-Feb-19 11:26N 38°54' E 001°27'0 0.0
2018-Feb-19 10:46N 38°54' E 001°27'1 2.3
2018-Feb-19 10:28N 38°54' E 001°28'1020.7
2018-Feb-19 10:00N 38°59' E 001°38'3821.9
2018-Feb-19 08:16N 39°19' E 002°19'621.9
2018-Feb-19 08:00N 39°22' E 002°25'1121.4
2018-Feb-19 07:30N 39°29' E 002°36'4 8.4
2018-Feb-19 07:00N 39°33' E 002°38'0 0.0
2018-Feb-19 06:30N 39°33' E 002°38'0 0.0
2018-Feb-19 06:00N 39°33' E 002°38'2 3.8
2018-Feb-19 05:30N 39°31' E 002°38'1020.6
2018-Feb-19 05:01N 39°23' E 002°30'1122.4
2018-Feb-19 04:30N 39°17' E 002°18'3322.4
2018-Feb-19 03:02N 38°60' E 001°42'122.4
2018-Feb-19 02:59N 38°59' E 001°41'1122.1
2018-Feb-19 02:30N 38°54' E 001°28'1 2.2
2018-Feb-19 01:57N 38°54' E 001°27'1 2.9
2018-Feb-19 01:29N 38°53' E 001°27'8819.5
2018-Feb-18 20:58N 39°26' W 000°19'1 1.9
2018-Feb-18 20:31N 39°27' W 000°19'0 0.0
2018-Feb-18 19:48N 39°27' W 000°19'0 0.0
2018-Feb-18 19:25N 39°27' W 000°19'0 0.0
2018-Feb-18 19:00N 39°27' W 000°19'0 0.0
2018-Feb-18 18:27N 39°27' W 000°19'0 0.0
2018-Feb-18 18:00N 39°27' W 000°19'0 0.0
2018-Feb-18 17:30N 39°27' W 000°19'0 0.0
2018-Feb-18 17:00N 39°27' W 000°19'0 0.0
2018-Feb-18 16:30N 39°27' W 000°19'1 1.8
2018-Feb-18 16:00N 39°26' W 000°19'8421.1
2018-Feb-18 12:02N 38°49' E 001°18'421.6
2018-Feb-18 11:52N 38°48' E 001°22'7 5.7
2018-Feb-18 10:37N 38°54' E 001°27'1 2.2
2018-Feb-18 10:15N 38°54' E 001°27'519.1
2018-Feb-18 10:00N 38°56' E 001°33'4021.8
2018-Feb-18 08:09N 39°17' E 002°17'322.0
2018-Feb-18 08:00N 39°19' E 002°21'1121.9
2018-Feb-18 07:30N 39°25' E 002°32'918.3
2018-Feb-18 07:00N 39°33' E 002°38'0 0.5
2018-Feb-18 06:30N 39°33' E 002°38'0 0.0
2018-Feb-18 06:00N 39°33' E 002°38'1 2.7
2018-Feb-18 05:30N 39°32' E 002°38'1121.3
2018-Feb-18 05:00N 39°23' E 002°30'1122.2
2018-Feb-18 04:30N 39°18' E 002°18'3421.4
2018-Feb-18 02:56N 38°60' E 001°41'921.7
2018-Feb-18 02:30N 38°55' E 001°31'3 3.4
2018-Feb-18 01:39N 38°54' E 001°27'1 3.4
2018-Feb-18 01:23N 38°54' E 001°27'8719.9
2018-Feb-17 21:00N 39°26' W 000°18'2 3.6
2018-Feb-17 20:30N 39°27' W 000°19'0 0.0
2018-Feb-17 20:00N 39°27' W 000°19'0 0.0
2018-Feb-17 19:30N 39°27' W 000°19'0 0.0
2018-Feb-17 19:00N 39°27' W 000°19'0 0.0
2018-Feb-17 18:26N 39°27' W 000°19'2 5.6
2018-Feb-17 18:00N 39°25' W 000°17'7621.1
2018-Feb-17 14:24N 38°51' E 001°10'921.2
2018-Feb-17 13:58N 38°48' E 001°21'713.1
2018-Feb-17 13:24N 38°54' E 001°27'0 0.0
2018-Feb-17 13:00N 38°54' E 001°27'0 0.0
2018-Feb-17 12:28N 38°54' E 001°27'4 8.8
2018-Feb-17 12:00N 38°55' E 001°32'4321.9
2018-Feb-17 10:01N 39°19' E 002°19'022.0
2018-Feb-17 10:00N 39°19' E 002°19'1121.9
2018-Feb-17 09:30N 39°25' E 002°31'1019.3
2018-Feb-17 09:00N 39°33' E 002°38'0 0.9
2018-Feb-17 08:30N 39°33' E 002°38'0 0.0
2018-Feb-17 08:00N 39°33' E 002°38'0 0.0
2018-Feb-17 07:30N 39°33' E 002°38'0 0.0
2018-Feb-17 07:00N 39°33' E 002°38'0 0.0
2018-Feb-17 06:30N 39°33' E 002°38'0 0.0
2018-Feb-17 06:00N 39°33' E 002°38'3 5.7
2018-Feb-17 05:30N 39°30' E 002°37'1121.7
2018-Feb-17 05:00N 39°23' E 002°27'4122.3
2018-Feb-17 03:09N 39°00' E 001°42'322.1
2018-Feb-17 03:00N 38°59' E 001°39'1018.4
2018-Feb-17 02:27N 38°54' E 001°27'0 0.2
2018-Feb-17 02:00N 38°54' E 001°27'3 6.2
2018-Feb-17 01:30N 38°51' E 001°27'815.5
2018-Feb-17 00:59N 38°48' E 001°17'8321.5
2018-Feb-16 21:07N 39°26' W 000°18'1 8.0
2018-Feb-16 21:00N 39°27' W 000°19'0 0.5
2018-Feb-16 20:10N 39°27' W 000°19'0 0.0
2018-Feb-16 19:52N 39°27' W 000°19'0 0.0
2018-Feb-16 19:22N 39°27' W 000°19'0 0.0
2018-Feb-16 19:00N 39°27' W 000°19'0 0.0
2018-Feb-16 18:30N 39°27' W 000°19'2 4.9
2018-Feb-16 18:00N 39°25' W 000°17'4921.7
2018-Feb-16 15:44N 39°03' E 000°39'521.8
2018-Feb-16 15:30N 39°00' E 000°45'1122.0
2018-Feb-16 15:00N 38°56' E 000°58'1221.8
2018-Feb-16 14:27N 38°50' E 001°12'921.3
2018-Feb-16 14:01N 38°48' E 001°24'712.6
2018-Feb-16 13:28N 38°54' E 001°27'0 0.0
2018-Feb-16 12:56N 38°54' E 001°27'0 0.0
2018-Feb-16 12:31N 38°54' E 001°27'510.6
2018-Feb-16 12:01N 38°56' E 001°33'4221.7
2018-Feb-16 10:04N 39°19' E 002°19'121.5
2018-Feb-16 10:00N 39°20' E 002°21'1121.6
2018-Feb-16 09:30N 39°26' E 002°32'917.1
2018-Feb-16 09:00N 39°33' E 002°38'0 0.2
2018-Feb-16 08:30N 39°33' E 002°38'0 0.0
2018-Feb-16 08:01N 39°33' E 002°38'0 0.0
2018-Feb-16 07:30N 39°33' E 002°38'0 0.0
2018-Feb-16 07:00N 39°33' E 002°38'0 0.0
2018-Feb-16 06:31N 39°33' E 002°38'1 2.9
2018-Feb-16 06:00N 39°32' E 002°38'1121.6
2018-Feb-16 05:30N 39°23' E 002°29'1122.2
2018-Feb-16 05:00N 39°17' E 002°17'1722.0
2018-Feb-16 04:12N 39°08' E 001°58'521.8
2018-Feb-16 04:00N 39°06' E 001°53'1121.9
2018-Feb-16 03:29N 38°60' E 001°41'1121.8
2018-Feb-16 03:00N 38°54' E 001°29'2 2.9
2018-Feb-16 02:28N 38°54' E 001°27'0 0.4
2018-Feb-16 01:59N 38°54' E 001°27'8718.8
2018-Feb-15 21:22N 39°25' W 000°18'2 5.6
2018-Feb-15 21:00N 39°27' W 000°19'0 0.0
2018-Feb-15 20:30N 39°27' W 000°19'0 0.0
2018-Feb-15 20:00N 39°27' W 000°19'0 0.0
2018-Feb-15 19:30N 39°27' W 000°19'0 0.0
2018-Feb-15 19:00N 39°27' W 000°19'1 2.8
2018-Feb-15 18:30N 39°26' W 000°18'7921.2
2018-Feb-15 14:48N 38°51' E 001°12'721.4
2018-Feb-15 14:30N 38°49' E 001°20'713.6
2018-Feb-15 13:58N 38°54' E 001°27'0 1.0
2018-Feb-15 13:30N 38°54' E 001°27'0 0.0
2018-Feb-15 12:56N 38°54' E 001°27'2 3.6
2018-Feb-15 12:29N 38°54' E 001°29'1121.3
2018-Feb-15 12:00N 38°60' E 001°41'3521.6
2018-Feb-15 10:22N 39°19' E 002°19'821.5
2018-Feb-15 10:00N 39°23' E 002°27'1121.4
2018-Feb-15 09:30N 39°30' E 002°37'3 5.7
2018-Feb-15 09:00N 39°33' E 002°38'0 0.0
2018-Feb-15 08:30N 39°33' E 002°38'0 0.0
2018-Feb-15 08:00N 39°33' E 002°38'0 0.0
2018-Feb-15 07:30N 39°33' E 002°38'0 0.0
2018-Feb-15 07:00N 39°33' E 002°38'0 0.0
2018-Feb-15 06:30N 39°33' E 002°38'0 0.0
2018-Feb-15 06:00N 39°33' E 002°38'0 0.0
2018-Feb-15 05:30N 39°33' E 002°38'0 0.0
2018-Feb-15 05:00N 39°33' E 002°38'0 0.0
2018-Feb-15 04:30N 39°33' E 002°38'0 0.0
2018-Feb-15 04:00N 39°33' E 002°38'0 0.0
2018-Feb-15 03:30N 39°33' E 002°38'0 0.0
2018-Feb-15 03:00N 39°33' E 002°38'0 0.0
2018-Feb-15 02:30N 39°33' E 002°38'0 0.0
2018-Feb-15 02:00N 39°33' E 002°38'0 0.0
2018-Feb-15 01:30N 39°33' E 002°38'  
Track history (hours):
 
Tides and Currents Weather Stations Pressure Air Temp Water Temp Dewpoint Dewpoint Depression Visibility Wind Speed Wind Dir Waves Ship Positions

Bahama Mama

Last reported at 2018-Feb-25 01:00 UTC. Time now 2018-Feb-25 01:30 UTC.
Position N 39°33' E 002°38'.

Length 155 m; draft 5.5 m.

Type: Ship. MMSI: 248218000.

Date/timePositionNaut miles runAvg speedWind from/ knotsBaromVisibWave heightAir tempDewpointWater temp
2018-Feb-25 01:00N 39°33' E 002°38'0 0.0
2018-Feb-25 00:30N 39°33' E 002°38'0 0.6
2018-Feb-25 00:00N 39°33' E 002°38'815.3
2018-Feb-24 23:31N 39°27' E 002°34'1121.5
2018-Feb-24 23:00N 39°20' E 002°23'4121.7
2018-Feb-24 21:08N 38°58' E 001°38'421.6
2018-Feb-24 20:58N 38°56' E 001°34'611.9
2018-Feb-24 20:27N 38°54' E 001°27'0 0.3
2018-Feb-24 19:51N 38°54' E 001°27'10 1.3
2018-Feb-24 12:10N 38°48' E 001°17'521.8
2018-Feb-24 11:57N 38°48' E 001°23'716.1
2018-Feb-24 11:30N 38°54' E 001°27'0 0.3
2018-Feb-24 10:58N 38°54' E 001°27'2 2.1
2018-Feb-24 10:13N 38°54' E 001°29'521.9
2018-Feb-24 10:00N 38°56' E 001°34'4222.1
2018-Feb-24 08:07N 39°19' E 002°19'221.9
2018-Feb-24 08:00N 39°21' E 002°22'1121.9
2018-Feb-24 07:30N 39°27' E 002°33'714.3
2018-Feb-24 07:00N 39°33' E 002°38'0 0.3
2018-Feb-24 06:30N 39°33' E 002°38'0 0.0
2018-Feb-24 06:00N 39°33' E 002°38'0 0.0
2018-Feb-24 05:30N 39°33' E 002°38'0 0.0
2018-Feb-24 05:00N 39°33' E 002°38'0 0.0
2018-Feb-24 04:30N 39°33' E 002°38'0 0.0
2018-Feb-24 04:00N 39°33' E 002°38'0 0.0
2018-Feb-24 03:30N 39°33' E 002°38'0 0.0
2018-Feb-24 03:00N 39°33' E 002°38'0 0.0
2018-Feb-24 02:30N 39°33' E 002°38'0 0.0
2018-Feb-24 02:00N 39°33' E 002°38'0 0.0
2018-Feb-24 01:30N 39°33' E 002°38'0 0.0
2018-Feb-24 01:00N 39°33' E 002°38'0 0.0
2018-Feb-24 00:29N 39°33' E 002°38'1 1.1
2018-Feb-24 00:00N 39°33' E 002°38'917.5
2018-Feb-23 23:30N 39°26' E 002°33'1121.5
2018-Feb-23 23:00N 39°19' E 002°22'3721.8
2018-Feb-23 21:19N 39°00' E 001°41'721.9
2018-Feb-23 21:00N 38°56' E 001°34'610.9
2018-Feb-23 20:29N 38°54' E 001°27'0 0.0
2018-Feb-23 20:00N 38°54' E 001°27'611.6
2018-Feb-23 19:28N 38°48' E 001°25'14 2.0
2018-Feb-23 12:32N 38°49' E 001°08'721.9
2018-Feb-23 12:14N 38°48' E 001°16'521.3
2018-Feb-23 12:00N 38°48' E 001°22'714.2
2018-Feb-23 11:30N 38°54' E 001°27'0 0.0
2018-Feb-23 11:01N 38°54' E 001°27'1 1.2
2018-Feb-23 10:18N 38°54' E 001°28'722.0
2018-Feb-23 10:00N 38°57' E 001°35'4021.9
2018-Feb-23 08:10N 39°19' E 002°19'322.0
2018-Feb-23 08:00N 39°21' E 002°22'1121.9
2018-Feb-23 07:30N 39°28' E 002°34'612.2
2018-Feb-23 07:00N 39°33' E 002°38'0 0.0
2018-Feb-23 06:31N 39°33' E 002°38'0 0.0
2018-Feb-23 06:00N 39°33' E 002°38'0 0.0
2018-Feb-23 05:30N 39°33' E 002°38'0 0.0
2018-Feb-23 05:00N 39°33' E 002°38'0 0.0
2018-Feb-23 04:30N 39°33' E 002°38'0 0.0
2018-Feb-23 03:58N 39°33' E 002°38'0 0.0
2018-Feb-23 03:30N 39°33' E 002°38'0 0.0
2018-Feb-23 03:00N 39°33' E 002°38'0 0.0
2018-Feb-23 02:30N 39°33' E 002°38'0 0.0
2018-Feb-23 02:00N 39°33' E 002°38'0 0.0
2018-Feb-23 01:30N 39°33' E 002°38'0 0.0
2018-Feb-23 01:00N 39°33' E 002°38'0 0.0
2018-Feb-23 00:29N 39°33' E 002°38'1 1.8
2018-Feb-23 00:01N 39°33' E 002°38'1019.9
2018-Feb-22 23:30N 39°24' E 002°32'1121.3
2018-Feb-22 22:59N 39°18' E 002°19'3721.2
2018-Feb-22 21:15N 38°59' E 001°39'521.2
2018-Feb-22 21:00N 38°56' E 001°33'5 9.2
2018-Feb-22 20:26N 38°54' E 001°27'0 0.6
2018-Feb-22 20:00N 38°54' E 001°27'814.5
2018-Feb-22 19:29N 38°48' E 001°22'11 1.7
2018-Feb-22 12:45N 38°49' E 001°08'622.2
2018-Feb-22 12:30N 38°49' E 001°15'918.7
2018-Feb-22 12:00N 38°50' E 001°27'5 8.7
2018-Feb-22 11:27N 38°54' E 001°27'0 0.0
2018-Feb-22 10:57N 38°54' E 001°27'1 1.4
2018-Feb-22 10:30N 38°54' E 001°28'918.9
2018-Feb-22 10:00N 38°58' E 001°38'3921.1
2018-Feb-22 08:08N 39°20' E 002°21'321.9
2018-Feb-22 08:00N 39°22' E 002°24'1121.2
2018-Feb-22 07:30N 39°28' E 002°34'611.5
2018-Feb-22 07:00N 39°33' E 002°38'0 0.0
2018-Feb-22 06:30N 39°33' E 002°38'611.2
2018-Feb-22 06:00N 39°28' E 002°35'1221.2
2018-Feb-22 05:27N 39°20' E 002°23'4321.1
2018-Feb-22 03:24N 38°57' E 001°36'820.2
2018-Feb-22 03:00N 38°54' E 001°27'0 0.8
2018-Feb-22 02:25N 38°54' E 001°27'5 7.0
2018-Feb-22 01:38N 38°49' E 001°26'215.4
2018-Feb-22 01:29N 38°48' E 001°23'8820.2
2018-Feb-21 21:07N 39°26' W 000°19'1 5.5
2018-Feb-21 21:00N 39°27' W 000°19'0 0.0
2018-Feb-21 20:30N 39°27' W 000°19'0 0.0
2018-Feb-21 19:58N 39°27' W 000°19'0 0.0
2018-Feb-21 18:52N 39°27' W 000°19'0 1.2
2018-Feb-21 18:30N 39°27' W 000°19'4 7.7
2018-Feb-21 17:59N 39°25' W 000°14'7621.1
2018-Feb-21 14:22N 38°50' E 001°13'922.0
2018-Feb-21 13:58N 38°48' E 001°24'612.3
2018-Feb-21 13:26N 38°54' E 001°27'0 0.0
2018-Feb-21 12:52N 38°54' E 001°27'0 0.7
2018-Feb-21 12:29N 38°54' E 001°27'815.4
2018-Feb-21 12:00N 38°58' E 001°36'4021.5
2018-Feb-21 10:07N 39°19' E 002°19'221.4
2018-Feb-21 10:00N 39°21' E 002°22'1121.8
2018-Feb-21 09:30N 39°27' E 002°33'713.8
2018-Feb-21 09:00N 39°33' E 002°38'0 0.0
2018-Feb-21 08:30N 39°33' E 002°38'0 0.0
2018-Feb-21 08:00N 39°33' E 002°38'0 0.0
2018-Feb-21 07:30N 39°33' E 002°38'0 0.0
2018-Feb-21 07:00N 39°33' E 002°38'0 0.0
2018-Feb-21 06:30N 39°33' E 002°38'0 0.5
2018-Feb-21 06:00N 39°33' E 002°38'3 6.3
2018-Feb-21 05:30N 39°30' E 002°37'1121.2
2018-Feb-21 04:59N 39°22' E 002°27'1021.2
2018-Feb-21 04:30N 39°16' E 002°16'3420.7
2018-Feb-21 02:52N 38°59' E 001°39'921.5
2018-Feb-21 02:26N 38°54' E 001°29'1 2.8
2018-Feb-21 02:00N 38°54' E 001°27'2 2.8
2018-Feb-21 01:25N 38°53' E 001°27'8819.7
2018-Feb-20 20:57N 39°26' W 000°19'1 1.9
2018-Feb-20 20:30N 39°27' W 000°19'0 0.0
2018-Feb-20 20:00N 39°27' W 000°19'0 0.0
2018-Feb-20 19:30N 39°27' W 000°19'0 0.0
2018-Feb-20 18:52N 39°27' W 000°19'0 0.1
2018-Feb-20 18:31N 39°27' W 000°19'8020.3
2018-Feb-20 14:33N 38°50' E 001°12'521.4
2018-Feb-20 14:21N 38°49' E 001°18'618.9
2018-Feb-20 14:01N 38°49' E 001°26'610.5
2018-Feb-20 13:28N 38°54' E 001°27'0 0.0
2018-Feb-20 12:58N 38°54' E 001°27'1 1.1
2018-Feb-20 12:23N 38°54' E 001°28'820.3
2018-Feb-20 12:00N 38°57' E 001°36'3921.9
2018-Feb-20 10:13N 39°19' E 002°18'521.9
2018-Feb-20 10:01N 39°21' E 002°23'1121.6
2018-Feb-20 09:30N 39°28' E 002°34'611.3
2018-Feb-20 09:01N 39°33' E 002°38'0 0.0
2018-Feb-20 08:30N 39°33' E 002°38'0 0.0
2018-Feb-20 08:00N 39°33' E 002°38'0 0.0
2018-Feb-20 07:30N 39°33' E 002°38'0 0.0
2018-Feb-20 07:01N 39°33' E 002°38'0 0.0
2018-Feb-20 06:30N 39°33' E 002°38'2 4.6
2018-Feb-20 06:00N 39°31' E 002°37'1121.8
2018-Feb-20 05:30N 39°23' E 002°28'4222.3
2018-Feb-20 03:38N 39°00' E 001°42'322.3
2018-Feb-20 03:30N 38°59' E 001°39'1121.1
2018-Feb-20 03:00N 38°54' E 001°27'0 0.7
2018-Feb-20 02:26N 38°54' E 001°27'0 0.0
2018-Feb-20 02:00N 38°54' E 001°27'611.1
2018-Feb-20 01:30N 38°49' E 001°26'9020.9
2018-Feb-19 21:13N 39°26' W 000°19'1 3.7
2018-Feb-19 21:00N 39°27' W 000°20'0 0.0
2018-Feb-19 20:30N 39°27' W 000°20'0 0.0
2018-Feb-19 20:00N 39°27' W 000°20'0 0.0
2018-Feb-19 19:30N 39°27' W 000°20'0 0.0
2018-Feb-19 19:00N 39°27' W 000°20'0 0.0
2018-Feb-19 18:30N 39°27' W 000°20'0 0.0
2018-Feb-19 18:00N 39°27' W 000°20'0 0.0
2018-Feb-19 17:30N 39°27' W 000°20'0 0.0
2018-Feb-19 17:00N 39°27' W 000°20'0 0.0
2018-Feb-19 16:30N 39°27' W 000°19'8320.9
2018-Feb-19 12:34N 38°49' E 001°15'521.6
2018-Feb-19 12:20N 38°48' E 001°21'515.0
2018-Feb-19 11:59N 38°52' E 001°27'3 5.0
2018-Feb-19 11:26N 38°54' E 001°27'0 0.0
2018-Feb-19 10:46N 38°54' E 001°27'1 2.3
2018-Feb-19 10:28N 38°54' E 001°28'1020.7
2018-Feb-19 10:00N 38°59' E 001°38'3821.9
2018-Feb-19 08:16N 39°19' E 002°19'621.9
2018-Feb-19 08:00N 39°22' E 002°25'1121.4
2018-Feb-19 07:30N 39°29' E 002°36'4 8.4
2018-Feb-19 07:00N 39°33' E 002°38'0 0.0
2018-Feb-19 06:30N 39°33' E 002°38'0 0.0
2018-Feb-19 06:00N 39°33' E 002°38'2 3.8
2018-Feb-19 05:30N 39°31' E 002°38'1020.6
2018-Feb-19 05:01N 39°23' E 002°30'1122.4
2018-Feb-19 04:30N 39°17' E 002°18'3322.4
2018-Feb-19 03:02N 38°60' E 001°42'122.4
2018-Feb-19 02:59N 38°59' E 001°41'1122.1
2018-Feb-19 02:30N 38°54' E 001°28'1 2.2
2018-Feb-19 01:57N 38°54' E 001°27'1 2.9
2018-Feb-19 01:29N 38°53' E 001°27'8819.5
2018-Feb-18 20:58N 39°26' W 000°19'1 1.9
2018-Feb-18 20:31N 39°27' W 000°19'0 0.0
2018-Feb-18 19:48N 39°27' W 000°19'0 0.0
2018-Feb-18 19:25N 39°27' W 000°19'0 0.0
2018-Feb-18 19:00N 39°27' W 000°19'0 0.0
2018-Feb-18 18:27N 39°27' W 000°19'0 0.0
2018-Feb-18 18:00N 39°27' W 000°19'0 0.0
2018-Feb-18 17:30N 39°27' W 000°19'0 0.0
2018-Feb-18 17:00N 39°27' W 000°19'0 0.0
2018-Feb-18 16:30N 39°27' W 000°19'1 1.8
2018-Feb-18 16:00N 39°26' W 000°19'8421.1
2018-Feb-18 12:02N 38°49' E 001°18'421.6
2018-Feb-18 11:52N 38°48' E 001°22'7 5.7
2018-Feb-18 10:37N 38°54' E 001°27'1 2.2
2018-Feb-18 10:15N 38°54' E 001°27'519.1
2018-Feb-18 10:00N 38°56' E 001°33'4021.8
2018-Feb-18 08:09N 39°17' E 002°17'322.0
2018-Feb-18 08:00N 39°19' E 002°21'1121.9
2018-Feb-18 07:30N 39°25' E 002°32'918.3
2018-Feb-18 07:00N 39°33' E 002°38'0 0.5
2018-Feb-18 06:30N 39°33' E 002°38'0 0.0
2018-Feb-18 06:00N 39°33' E 002°38'1 2.7
2018-Feb-18 05:30N 39°32' E 002°38'1121.3
2018-Feb-18 05:00N 39°23' E 002°30'1122.2
2018-Feb-18 04:30N 39°18' E 002°18'3421.4
2018-Feb-18 02:56N 38°60' E 001°41'921.7
2018-Feb-18 02:30N 38°55' E 001°31'3 3.4
2018-Feb-18 01:39N 38°54' E 001°27'1 3.4
2018-Feb-18 01:23N 38°54' E 001°27'8719.9
2018-Feb-17 21:00N 39°26' W 000°18'2 3.6
2018-Feb-17 20:30N 39°27' W 000°19'0 0.0
2018-Feb-17 20:00N 39°27' W 000°19'0 0.0
2018-Feb-17 19:30N 39°27' W 000°19'0 0.0
2018-Feb-17 19:00N 39°27' W 000°19'0 0.0
2018-Feb-17 18:26N 39°27' W 000°19'2 5.6
2018-Feb-17 18:00N 39°25' W 000°17'7621.1
2018-Feb-17 14:24N 38°51' E 001°10'921.2
2018-Feb-17 13:58N 38°48' E 001°21'713.1
2018-Feb-17 13:24N 38°54' E 001°27'0 0.0
2018-Feb-17 13:00N 38°54' E 001°27'0 0.0
2018-Feb-17 12:28N 38°54' E 001°27'4 8.8
2018-Feb-17 12:00N 38°55' E 001°32'4321.9
2018-Feb-17 10:01N 39°19' E 002°19'022.0
2018-Feb-17 10:00N 39°19' E 002°19'1121.9
2018-Feb-17 09:30N 39°25' E 002°31'1019.3
2018-Feb-17 09:00N 39°33' E 002°38'0 0.9
2018-Feb-17 08:30N 39°33' E 002°38'0 0.0
2018-Feb-17 08:00N 39°33' E 002°38'0 0.0
2018-Feb-17 07:30N 39°33' E 002°38'0 0.0
2018-Feb-17 07:00N 39°33' E 002°38'0 0.0
2018-Feb-17 06:30N 39°33' E 002°38'0 0.0
2018-Feb-17 06:00N 39°33' E 002°38'3 5.7
2018-Feb-17 05:30N 39°30' E 002°37'1121.7
2018-Feb-17 05:00N 39°23' E 002°27'4122.3
2018-Feb-17 03:09N 39°00' E 001°42'322.1
2018-Feb-17 03:00N 38°59' E 001°39'1018.4
2018-Feb-17 02:27N 38°54' E 001°27'0 0.2
2018-Feb-17 02:00N 38°54' E 001°27'3 6.2
2018-Feb-17 01:30N 38°51' E 001°27'815.5
2018-Feb-17 00:59N 38°48' E 001°17'8321.5
2018-Feb-16 21:07N 39°26' W 000°18'1 8.0
2018-Feb-16 21:00N 39°27' W 000°19'0 0.5
2018-Feb-16 20:10N 39°27' W 000°19'0 0.0
2018-Feb-16 19:52N 39°27' W 000°19'0 0.0
2018-Feb-16 19:22N 39°27' W 000°19'0 0.0
2018-Feb-16 19:00N 39°27' W 000°19'0 0.0
2018-Feb-16 18:30N 39°27' W 000°19'2 4.9
2018-Feb-16 18:00N 39°25' W 000°17'4921.7
2018-Feb-16 15:44N 39°03' E 000°39'521.8
2018-Feb-16 15:30N 39°00' E 000°45'1122.0
2018-Feb-16 15:00N 38°56' E 000°58'1221.8
2018-Feb-16 14:27N 38°50' E 001°12'921.3
2018-Feb-16 14:01N 38°48' E 001°24'712.6
2018-Feb-16 13:28N 38°54' E 001°27'0 0.0
2018-Feb-16 12:56N 38°54' E 001°27'0 0.0
2018-Feb-16 12:31N 38°54' E 001°27'510.6
2018-Feb-16 12:01N 38°56' E 001°33'4221.7
2018-Feb-16 10:04N 39°19' E 002°19'121.5
2018-Feb-16 10:00N 39°20' E 002°21'1121.6
2018-Feb-16 09:30N 39°26' E 002°32'917.1
2018-Feb-16 09:00N 39°33' E 002°38'0 0.2
2018-Feb-16 08:30N 39°33' E 002°38'0 0.0
2018-Feb-16 08:01N 39°33' E 002°38'0 0.0
2018-Feb-16 07:30N 39°33' E 002°38'0 0.0
2018-Feb-16 07:00N 39°33' E 002°38'0 0.0
2018-Feb-16 06:31N 39°33' E 002°38'1 2.9
2018-Feb-16 06:00N 39°32' E 002°38'1121.6
2018-Feb-16 05:30N 39°23' E 002°29'1122.2
2018-Feb-16 05:00N 39°17' E 002°17'1722.0
2018-Feb-16 04:12N 39°08' E 001°58'521.8
2018-Feb-16 04:00N 39°06' E 001°53'1121.9
2018-Feb-16 03:29N 38°60' E 001°41'1121.8
2018-Feb-16 03:00N 38°54' E 001°29'2 2.9
2018-Feb-16 02:28N 38°54' E 001°27'0 0.4
2018-Feb-16 01:59N 38°54' E 001°27'8718.8
2018-Feb-15 21:22N 39°25' W 000°18'2 5.6
2018-Feb-15 21:00N 39°27' W 000°19'0 0.0
2018-Feb-15 20:30N 39°27' W 000°19'0 0.0
2018-Feb-15 20:00N 39°27' W 000°19'0 0.0
2018-Feb-15 19:30N 39°27' W 000°19'0 0.0
2018-Feb-15 19:00N 39°27' W 000°19'1 2.8
2018-Feb-15 18:30N 39°26' W 000°18'7921.2
2018-Feb-15 14:48N 38°51' E 001°12'721.4
2018-Feb-15 14:30N 38°49' E 001°20'713.6
2018-Feb-15 13:58N 38°54' E 001°27'0 1.0
2018-Feb-15 13:30N 38°54' E 001°27'0 0.0
2018-Feb-15 12:56N 38°54' E 001°27'2 3.6
2018-Feb-15 12:29N 38°54' E 001°29'1121.3
2018-Feb-15 12:00N 38°60' E 001°41'3521.6
2018-Feb-15 10:22N 39°19' E 002°19'821.5
2018-Feb-15 10:00N 39°23' E 002°27'1121.4
2018-Feb-15 09:30N 39°30' E 002°37'3 5.7
2018-Feb-15 09:00N 39°33' E 002°38'0 0.0
2018-Feb-15 08:30N 39°33' E 002°38'0 0.0
2018-Feb-15 08:00N 39°33' E 002°38'0 0.0
2018-Feb-15 07:30N 39°33' E 002°38'0 0.0
2018-Feb-15 07:00N 39°33' E 002°38'0 0.0
2018-Feb-15 06:30N 39°33' E 002°38'0 0.0
2018-Feb-15 06:00N 39°33' E 002°38'0 0.0
2018-Feb-15 05:30N 39°33' E 002°38'0 0.0
2018-Feb-15 05:00N 39°33' E 002°38'0 0.0
2018-Feb-15 04:30N 39°33' E 002°38'0 0.0
2018-Feb-15 04:00N 39°33' E 002°38'0 0.0
2018-Feb-15 03:30N 39°33' E 002°38'0 0.0
2018-Feb-15 03:00N 39°33' E 002°38'0 0.0
2018-Feb-15 02:30N 39°33' E 002°38'0 0.0
2018-Feb-15 02:00N 39°33' E 002°38'0 0.0
2018-Feb-15 01:30N 39°33' E 002°38'  

Dump ship's entire track history